Time;durP1;ratioP1;P1;durP2;ratioP2;P2;SDS_P1;SDS_P2;PMS_P1;PMS_P2;Temp;Humidity;BMP_temperature;BMP_pressure;BME280_temperature;BME280_humidity;BME280_pressure;Samples;Min_cycle;Max_cycle;Signal;HPM_P1;HPM_P2
2022/06/06 00:01:21;;;;;;;9.57;8.30;;;;;;;16.06;75.72;100717.23;1625318;86;21867;-71
2022/06/06 00:03:49;;;;;;;8.87;8.07;;;;;;;16.03;75.86;100715.91;1624885;85;21431;-73
2022/06/06 00:06:19;;;;;;;10.27;8.80;;;;;;;15.98;76.17;100722.70;1621417;86;21419;-73
2022/06/06 00:08:48;;;;;;;9.47;8.57;;;;;;;15.98;76.17;100723.25;1629604;86;21462;-73
2022/06/06 00:11:15;;;;;;;9.43;8.53;;;;;;;15.98;76.17;100723.25;1602392;88;21447;-72
2022/06/06 00:13:44;;;;;;;8.70;7.90;;;;;;;15.97;76.07;100724.34;1625610;86;22043;-72
2022/06/06 00:16:13;;;;;;;9.13;8.23;;;;;;;16.12;75.67;100723.61;1626669;86;21449;-72
2022/06/06 00:18:39;;;;;;;9.70;8.70;;;;;;;16.12;75.67;100723.61;1601683;88;21714;-73
2022/06/06 00:21:08;;;;;;;10.17;9.17;;;;;;;16.12;75.48;100724.13;1639470;87;21437;-73
2022/06/06 00:23:37;;;;;;;9.63;8.63;;;;;;;16.09;75.55;100724.70;1638240;87;21338;-73
2022/06/06 00:26:11;;;;;;;9.67;8.77;;;;;;;16.08;75.63;100717.72;1600068;87;21875;-73
2022/06/06 00:28:39;;;;;;;10.87;9.83;;;;;;;16.06;75.74;100719.92;1600734;86;21448;-73
2022/06/06 00:36:37;;;;;;;10.57;9.57;;;;;;;15.99;76.02;100720.80;1625446;86;21359;-73
2022/06/06 00:39:06;;;;;;;11.63;9.60;;;;;;;15.97;76.21;100717.61;1605247;88;21345;-73
2022/06/06 00:41:40;;;;;;;10.30;9.10;;;;;;;15.94;76.32;100722.48;1626393;85;21465;-73
2022/06/06 00:44:11;;;;;;;10.30;9.37;;;;;;;15.94;76.37;100724.38;1621191;86;21292;-73
2022/06/06 00:46:46;;;;;;;11.33;10.13;;;;;;;15.94;76.38;100720.33;1627310;86;26473;-72
2022/06/06 00:49:17;;;;;;;10.77;9.27;;;;;;;15.79;76.85;100716.47;1630489;86;21159;-72
2022/06/06 00:51:44;;;;;;;11.67;10.47;;;;;;;15.74;77.17;100725.42;1627648;86;21322;-73
2022/06/06 00:54:10;;;;;;;10.73;9.73;;;;;;;15.72;77.42;100727.59;1635423;86;22040;-72
2022/06/06 00:56:53;;;;;;;10.70;9.60;;;;;;;15.74;77.54;100721.37;1634485;86;22269;-72
2022/06/06 00:59:23;;;;;;;10.57;9.47;;;;;;;15.75;77.64;100728.36;1625664;87;22053;-71
2022/06/06 01:01:50;;;;;;;10.57;9.57;;;;;;;15.97;77.17;100727.04;1622914;86;21390;-71
2022/06/06 01:04:19;;;;;;;11.10;10.00;;;;;;;15.97;77.17;100727.04;1622113;86;21483;-72
2022/06/06 01:06:46;;;;;;;9.70;8.80;;;;;;;15.97;76.87;100727.84;1625275;86;21502;-72
2022/06/06 01:09:14;;;;;;;10.70;9.60;;;;;;;15.98;76.82;100732.13;1627013;86;22038;-73
2022/06/06 01:11:47;;;;;;;12.77;10.17;;;;;;;15.98;76.83;100736.72;1599609;88;21390;-72
2022/06/06 01:14:16;;;;;;;10.78;9.55;;;;;;;15.97;76.90;100734.58;1593399;87;21354;-73
2022/06/06 01:16:54;;;;;;;9.93;9.03;;;;;;;15.96;76.93;100735.67;1622597;86;21550;-72
2022/06/06 01:19:52;;;;;;;10.20;9.20;;;;;;;15.95;76.95;100740.23;1588448;87;21309;-72
2022/06/06 01:22:41;;;;;;;10.63;9.63;;;;;;;15.94;77.01;100737.84;1578094;88;21940;-72
2022/06/06 01:25:25;;;;;;;11.43;10.33;;;;;;;15.93;77.15;100737.05;1621243;86;21770;-72
2022/06/06 01:28:04;;;;;;;11.07;10.07;;;;;;;15.90;77.26;100736.27;1596672;88;21428;-72
2022/06/06 01:30:41;;;;;;;11.00;9.90;;;;;;;15.86;77.41;100736.59;1625376;86;21912;-72
2022/06/06 01:33:12;;;;;;;13.23;10.30;;;;;;;15.85;77.51;100736.31;1626741;85;21052;-71
2022/06/06 01:35:44;;;;;;;11.05;9.95;;;;;;;15.83;77.68;100739.06;1599032;87;21443;-72
2022/06/06 01:38:12;;;;;;;11.25;10.18;;;;;;;15.82;77.75;100741.48;1624665;86;25073;-72
2022/06/06 01:41:01;;;;;;;11.73;10.53;;;;;;;15.79;77.82;100740.16;1595304;88;21119;-72
2022/06/06 01:43:48;;;;;;;12.10;9.43;;;;;;;15.79;77.91;100740.70;1622570;86;22010;-72
2022/06/06 01:46:22;;;;;;;10.73;9.67;;;;;;;15.76;78.02;100736.72;1621613;86;21381;-72
2022/06/06 01:48:49;;;;;;;10.43;9.43;;;;;;;15.75;78.09;100745.06;1600116;87;21405;-72
2022/06/06 01:51:22;;;;;;;11.33;10.23;;;;;;;15.75;78.12;100745.06;1626238;86;21541;-72
2022/06/06 01:53:49;;;;;;;10.93;9.60;;;;;;;15.75;78.13;100752.59;1600974;88;21279;-72
2022/06/06 01:56:23;;;;;;;11.83;9.17;;;;;;;15.66;78.36;100748.41;1628262;86;23109;-71
2022/06/06 01:58:51;;;;;;;11.00;9.67;;;;;;;15.67;78.38;100747.30;1625360;85;21289;-72
2022/06/06 02:01:18;;;;;;;11.20;10.00;;;;;;;15.65;78.44;100748.09;1599004;88;22904;-71
2022/06/06 02:03:46;;;;;;;11.30;10.20;;;;;;;15.57;78.74;100743.90;1622802;86;21472;-71
2022/06/06 02:06:13;;;;;;;10.27;9.27;;;;;;;15.54;78.84;100743.92;1610445;87;21279;-71
2022/06/06 02:08:40;;;;;;;10.90;9.87;;;;;;;15.54;78.90;100745.81;1624805;86;21402;-72
2022/06/06 02:11:06;;;;;;;10.17;9.17;;;;;;;15.54;79.00;100746.61;1625458;86;21366;-72
2022/06/06 02:13:34;;;;;;;11.67;10.37;;;;;;;15.55;79.06;100748.75;1622694;86;21418;-71
2022/06/06 02:16:00;;;;;;;10.67;9.57;;;;;;;15.56;79.04;100741.73;1599694;88;21380;-72
2022/06/06 02:18:27;;;;;;;10.67;9.67;;;;;;;15.72;78.61;100746.44;1638554;87;21391;-72
2022/06/06 02:20:56;;;;;;;12.10;10.13;;;;;;;15.78;78.36;100752.58;1625919;86;21437;-72
2022/06/06 02:23:23;;;;;;;10.53;9.40;;;;;;;15.80;78.26;100753.10;1597360;88;21414;-72
2022/06/06 02:25:50;;;;;;;10.23;9.33;;;;;;;15.83;78.21;100751.19;1621689;86;22967;-73
2022/06/06 02:28:16;;;;;;;11.20;10.20;;;;;;;15.85;78.16;100751.68;1621744;86;21352;-72
2022/06/06 02:30:43;;;;;;;10.80;9.70;;;;;;;15.87;78.12;100758.39;1622281;86;21486;-71
2022/06/06 02:33:10;;;;;;;10.23;9.23;;;;;;;15.90;78.00;100754.33;1601819;88;21322;-72
2022/06/06 02:35:40;;;;;;;10.10;9.20;;;;;;;15.92;77.90;100756.97;1625834;87;21422;-72
2022/06/06 02:38:09;;;;;;;11.23;10.13;;;;;;;15.95;77.78;100759.09;1626243;86;21678;-72
2022/06/06 02:40:36;;;;;;;10.60;9.67;;;;;;;15.99;77.70;100766.08;1625101;86;21458;-72
2022/06/06 02:43:05;;;;;;;10.23;9.30;;;;;;;15.94;77.78;100760.19;1626253;86;22143;-72
2022/06/06 02:45:32;;;;;;;10.70;9.70;;;;;;;15.94;77.78;100760.19;1627478;86;21936;-72
2022/06/06 02:47:59;;;;;;;10.40;9.20;;;;;;;16.03;77.32;100759.02;1626056;86;22033;-73
2022/06/06 02:50:29;;;;;;;10.93;9.93;;;;;;;16.08;77.10;100760.84;1622790;85;21454;-71
2022/06/06 02:52:56;;;;;;;10.37;9.23;;;;;;;16.13;76.90;100762.13;1626106;86;23030;-71
2022/06/06 02:55:23;;;;;;;11.20;10.10;;;;;;;16.01;77.12;100776.01;1600881;88;21491;-72
2022/06/06 02:57:52;;;;;;;10.87;9.77;;;;;;;16.15;76.70;100759.38;1622300;86;21898;-72
2022/06/06 03:00:23;;;;;;;11.00;9.90;;;;;;;16.25;76.36;100759.00;1625036;86;21473;-73
2022/06/06 03:02:49;;;;;;;11.57;10.48;;;;;;;16.31;76.13;100763.23;1623651;86;22924;-72
2022/06/06 03:05:17;;;;;;;11.57;10.37;;;;;;;16.36;75.95;100761.83;1622706;86;21100;-72
2022/06/06 03:08:13;;;;;;;11.10;9.97;;;;;;;16.42;75.73;100764.72;1623442;86;21752;-73
2022/06/06 03:11:23;;;;;;;10.00;9.00;;;;;;;16.51;74.92;100764.84;1622772;86;21475;-72
2022/06/06 03:14:00;;;;;;;10.68;9.68;;;;;;;16.51;74.92;100764.84;1599339;88;22064;-72
2022/06/06 03:23:27;;;;;;;10.05;9.15;;;;;;;16.67;73.45;100766.78;1625820;86;21657;-72
2022/06/06 03:26:09;;;;;;;9.18;8.38;;;;;;;16.74;73.19;100768.01;1623132;85;21164;-73
2022/06/06 03:29:05;;;;;;;10.20;8.73;;;;;;;16.81;72.82;100761.75;1600264;87;21059;-71
2022/06/06 03:31:53;;;;;;;9.37;8.47;;;;;;;16.88;72.17;100768.92;1624326;86;21621;-72
2022/06/06 03:34:28;;;;;;;9.30;8.30;;;;;;;17.01;70.48;100767.89;1625665;86;21861;-73
2022/06/06 03:37:27;;;;;;;9.30;8.30;;;;;;;17.07;70.50;100763.47;1625863;86;21926;-73
2022/06/06 03:40:15;;;;;;;9.73;8.60;;;;;;;17.07;70.50;100763.47;1619324;85;21939;-73
2022/06/06 03:42:53;;;;;;;9.00;7.97;;;;;;;17.22;69.56;100773.77;1585359;86;21800;-72
2022/06/06 03:45:53;;;;;;;9.20;8.20;;;;;;;17.22;69.56;100773.77;1631163;86;21692;-73
2022/06/06 03:49:07;;;;;;;9.33;8.43;;;;;;;17.35;69.27;100767.05;1602548;88;21829;-72
2022/06/06 03:51:49;;;;;;;7.83;7.13;;;;;;;17.35;69.27;100767.05;1624598;86;21910;-72
2022/06/06 03:54:57;;;;;;;8.93;8.03;;;;;;;17.41;68.76;100770.47;1625348;86;21813;-72
2022/06/06 03:57:25;;;;;;;9.13;8.30;;;;;;;17.48;68.36;100767.38;1622561;85;21924;-73
2022/06/06 03:59:59;;;;;;;8.60;7.70;;;;;;;17.53;68.04;100766.72;1625240;86;21785;-72
2022/06/06 04:02:31;;;;;;;9.60;8.60;;;;;;;17.59;67.48;100770.93;1625322;86;21853;-73
2022/06/06 04:05:06;;;;;;;8.60;7.73;;;;;;;17.65;67.10;100770.30;1623464;85;21882;-73
2022/06/06 04:07:34;;;;;;;8.17;7.40;;;;;;;17.72;66.95;100769.34;1619819;87;21771;-72
2022/06/06 04:10:01;;;;;;;8.00;7.20;;;;;;;17.81;66.71;100772.19;1598312;88;21851;-73
2022/06/06 04:12:56;;;;;;;8.20;7.50;;;;;;;17.90;66.56;100774.97;1625523;86;21865;-72
2022/06/06 04:15:57;;;;;;;8.20;7.40;;;;;;;17.99;66.23;100773.97;1622582;85;21841;-73
2022/06/06 04:18:47;;;;;;;7.05;6.40;;;;;;;18.11;65.43;100782.14;1602711;87;21811;-72
2022/06/06 04:21:35;;;;;;;7.20;6.50;;;;;;;18.20;64.76;100776.28;1626803;86;21123;-73
2022/06/06 04:24:26;;;;;;;7.40;6.27;;;;;;;18.35;63.61;100784.60;1626372;86;21804;-72
2022/06/06 04:27:16;;;;;;;7.25;6.03;;;;;;;18.35;63.61;100784.60;1623155;86;21646;-73
2022/06/06 04:30:06;;;;;;;8.23;6.30;;;;;;;18.46;62.83;100786.80;1615067;86;21079;-73
2022/06/06 04:32:50;;;;;;;6.40;5.80;;;;;;;18.58;62.10;100782.75;1625528;86;21096;-72
2022/06/06 04:35:44;;;;;;;6.20;5.63;;;;;;;18.55;61.84;100784.15;1623105;86;21049;-73
2022/06/06 04:38:36;;;;;;;6.57;5.93;;;;;;;18.76;61.38;100780.48;1623733;86;20994;-72
2022/06/06 04:41:37;;;;;;;7.00;6.00;;;;;;;18.85;60.89;100777.82;1622578;86;21259;-72
2022/06/06 04:44:16;;;;;;;5.70;5.20;;;;;;;18.92;60.53;100780.36;1622443;86;21584;-72
2022/06/06 04:47:09;;;;;;;6.50;5.27;;;;;;;19.03;59.39;100784.17;1624079;86;21119;-72
2022/06/06 04:49:36;;;;;;;7.60;5.37;;;;;;;19.14;59.32;100776.83;1609753;87;21079;-73
2022/06/06 04:52:04;;;;;;;5.03;4.30;;;;;;;19.29;58.44;100781.08;1626690;86;21432;-73
2022/06/06 04:54:32;;;;;;;6.67;5.13;;;;;;;19.42;57.01;100785.61;1630920;86;21160;-73
2022/06/06 04:57:03;;;;;;;6.17;4.37;;;;;;;19.56;55.89;100790.14;1631148;86;21591;-73
2022/06/06 04:59:30;;;;;;;6.05;3.77;;;;;;;19.67;55.07;100795.55;1627570;86;21072;-73
2022/06/06 05:02:00;;;;;;;5.10;4.27;;;;;;;19.72;54.80;100791.36;1601148;88;21119;-74
2022/06/06 05:04:27;;;;;;;4.50;4.10;;;;;;;19.93;53.51;100794.86;1624785;85;21100;-73
2022/06/06 05:07:19;;;;;;;5.17;4.27;;;;;;;20.04;52.86;100792.09;1625064;86;21122;-73
2022/06/06 05:10:16;;;;;;;4.83;3.58;;;;;;;20.12;52.62;100794.84;1595804;88;21082;-72
2022/06/06 05:13:14;;;;;;;5.20;3.90;;;;;;;20.28;52.49;100800.63;1622677;85;21097;-72
2022/06/06 05:16:11;;;;;;;8.43;4.30;;;;;;;20.42;52.24;100799.13;1628672;86;21140;-71
2022/06/06 05:19:17;;;;;;;5.33;4.00;;;;;;;20.58;51.72;100800.29;1601340;86;21156;-73
2022/06/06 05:22:03;;;;;;;3.97;3.47;;;;;;;20.71;50.94;100791.76;1600543;88;21172;-73
2022/06/06 05:25:03;;;;;;;4.70;2.80;;;;;;;20.78;50.62;100791.28;1624720;86;21539;-73
2022/06/06 05:27:51;;;;;;;4.57;3.00;;;;;;;20.90;48.56;100795.52;1571013;88;21119;-73
2022/06/06 05:30:40;;;;;;;4.53;2.87;;;;;;;21.01;47.48;100795.97;1625175;86;21084;-73
2022/06/06 05:33:15;;;;;;;4.13;2.80;;;;;;;21.08;46.66;100792.20;1610798;87;21114;-71
2022/06/06 05:36:02;;;;;;;4.37;2.90;;;;;;;21.17;45.98;100791.64;1613454;87;21636;-73
2022/06/06 05:39:03;;;;;;;4.40;2.90;;;;;;;21.28;46.45;100798.31;1613314;87;21101;-72
2022/06/06 05:41:52;;;;;;;2.92;2.50;;;;;;;21.47;46.76;100801.27;1607683;88;21089;-73
2022/06/06 05:44:41;;;;;;;4.07;2.50;;;;;;;21.62;45.47;100796.67;1607653;88;21033;-72
2022/06/06 05:47:37;;;;;;;3.30;2.53;;;;;;;21.75;45.47;100797.02;1615100;87;21094;-74
2022/06/06 05:50:30;;;;;;;5.23;2.80;;;;;;;21.90;45.71;100807.89;1615215;87;21237;-73
2022/06/06 05:53:17;;;;;;;3.90;2.47;;;;;;;22.06;45.17;100809.50;1607979;87;21154;-73
2022/06/06 05:56:30;;;;;;;4.10;2.30;;;;;;;22.23;44.40;100808.63;1599698;88;21817;-71
2022/06/06 05:59:34;;;;;;;3.37;2.40;;;;;;;22.35;44.07;100814.73;1607104;88;21124;-72
2022/06/06 06:02:26;;;;;;;4.27;2.47;;;;;;;22.37;42.42;100816.55;1606245;87;21472;-73
2022/06/06 06:05:19;;;;;;;2.87;2.10;;;;;;;22.39;42.34;100808.86;1561718;88;21564;-73
2022/06/06 06:08:16;;;;;;;3.73;2.20;;;;;;;22.54;41.82;100809.64;1567512;88;21089;-73
2022/06/06 06:11:17;;;;;;;3.10;2.20;;;;;;;22.63;41.24;100808.99;1607539;87;21910;-73
2022/06/06 06:13:58;;;;;;;3.50;2.20;;;;;;;22.73;40.80;100813.81;1611128;87;21109;-71
2022/06/06 06:16:28;;;;;;;3.25;2.10;;;;;;;22.71;40.61;100814.95;1546339;88;21220;-73
2022/06/06 06:19:01;;;;;;;2.77;1.83;;;;;;;22.68;39.32;100813.46;1607354;88;21245;-73
2022/06/06 06:21:30;;;;;;;3.23;1.90;;;;;;;22.75;38.81;100809.63;1608099;87;21140;-71
2022/06/06 06:24:10;;;;;;;4.83;2.03;;;;;;;22.84;39.52;100815.81;1605745;87;21112;-73
2022/06/06 06:26:37;;;;;;;7.00;2.30;;;;;;;22.96;39.51;100818.38;1608891;87;21101;-72
2022/06/06 06:29:06;;;;;;;3.27;1.97;;;;;;;23.07;40.89;100821.73;1584662;88;21089;-72
2022/06/06 06:32:21;;;;;;;3.07;1.80;;;;;;;23.26;40.31;100817.12;1607891;88;21299;-73
2022/06/06 06:35:21;;;;;;;2.63;2.00;;;;;;;23.41;39.62;100812.97;1607364;88;21065;-73
2022/06/06 06:38:09;;;;;;;2.80;2.07;;;;;;;23.56;38.40;100817.78;1607054;87;21102;-72
2022/06/06 06:40:59;;;;;;;2.50;2.00;;;;;;;23.56;37.53;100820.50;1607772;87;21148;-72
2022/06/06 06:44:11;;;;;;;5.87;2.30;;;;;;;23.55;37.47;100816.16;1605300;88;21072;-73
2022/06/06 06:46:48;;;;;;;3.10;1.90;;;;;;;23.52;36.98;100826.38;1604863;88;21490;-72
2022/06/06 06:49:32;;;;;;;3.33;1.90;;;;;;;23.53;37.53;100826.63;1606511;88;21139;-72
2022/06/06 06:52:26;;;;;;;4.40;2.47;;;;;;;23.60;37.42;100823.34;1607838;87;21062;-73
2022/06/06 06:55:10;;;;;;;5.60;2.53;;;;;;;23.70;36.55;100824.88;1607370;88;21644;-72
2022/06/06 06:58:17;;;;;;;3.00;2.00;;;;;;;23.79;35.90;100827.72;1606906;88;21153;-73
2022/06/06 07:00:55;;;;;;;4.93;1.93;;;;;;;23.86;35.69;100827.16;1614824;87;22037;-73
2022/06/06 07:09:22;;;;;;;2.87;1.93;;;;;;;23.88;36.50;100834.42;1557379;87;20999;-72
2022/06/06 07:12:13;;;;;;;4.03;1.90;;;;;;;23.89;35.16;100829.21;1615421;87;21010;-73
2022/06/06 07:15:05;;;;;;;4.23;2.10;;;;;;;23.93;34.95;100826.59;1612584;87;21774;-73
2022/06/06 07:17:37;;;;;;;3.23;1.83;;;;;;;23.98;35.79;100829.87;1615569;88;21030;-72
2022/06/06 07:20:07;;;;;;;2.90;1.90;;;;;;;24.03;34.81;100828.87;1613747;88;21046;-72
2022/06/06 07:23:00;;;;;;;3.17;2.00;;;;;;;24.01;35.36;100832.49;1612713;88;21121;-73
2022/06/06 07:25:38;;;;;;;3.23;2.00;;;;;;;24.07;35.10;100825.10;1640464;86;20978;-74
2022/06/06 07:28:11;;;;;;;2.63;1.83;;;;;;;24.15;35.82;100819.86;1642202;86;21528;-74
2022/06/06 07:30:54;;;;;;;2.17;1.70;;;;;;;24.28;35.40;100828.27;1642268;86;21033;-72
2022/06/06 07:33:39;;;;;;;3.40;1.80;;;;;;;24.39;34.37;100831.34;1599426;88;21062;-73
2022/06/06 07:36:55;;;;;;;3.57;1.97;;;;;;;24.48;34.03;100830.66;1615154;87;21066;-72
2022/06/06 07:39:45;;;;;;;3.90;2.10;;;;;;;24.63;33.77;100829.16;1614745;87;21128;-71
2022/06/06 07:42:43;;;;;;;2.77;1.80;;;;;;;24.81;34.33;100831.84;1614982;87;21258;-73
2022/06/06 07:45:32;;;;;;;3.17;1.90;;;;;;;24.99;34.48;100830.97;1615170;87;21038;-72
2022/06/06 07:48:36;;;;;;;4.07;1.80;;;;;;;25.20;33.79;100828.05;1616593;87;21117;-73
2022/06/06 07:51:18;;;;;;;4.13;1.80;;;;;;;25.36;33.49;100824.77;1615538;87;21013;-72
2022/06/06 07:54:11;;;;;;;3.00;1.90;;;;;;;25.55;32.23;100828.77;1613061;88;21065;-73
2022/06/06 07:56:59;;;;;;;2.50;1.80;;;;;;;25.48;32.08;100836.23;1612464;88;21380;-72
2022/06/06 07:59:35;;;;;;;3.57;1.90;;;;;;;25.34;31.89;100842.12;1612270;88;21588;-73
2022/06/06 08:02:31;;;;;;;3.47;1.87;;;;;;;25.23;32.57;100843.17;1612753;88;21125;-72
2022/06/06 08:05:24;;;;;;;3.17;1.90;;;;;;;25.16;32.83;100846.30;1612506;88;21569;-72
2022/06/06 08:08:08;;;;;;;3.60;2.00;;;;;;;25.15;32.78;100850.19;1614821;88;21450;-73
2022/06/06 08:10:46;;;;;;;3.00;1.80;;;;;;;25.19;31.51;100849.12;1612546;87;21776;-73
2022/06/06 08:13:32;;;;;;;3.63;1.60;;;;;;;25.08;31.71;100849.39;1613732;87;21035;-74
2022/06/06 08:16:43;;;;;;;2.43;1.70;;;;;;;24.89;31.98;100843.19;1612249;87;21136;-72
2022/06/06 08:19:26;;;;;;;3.17;1.98;;;;;;;24.68;32.62;100846.66;1606482;88;21021;-72
2022/06/06 08:21:54;;;;;;;3.90;1.87;;;;;;;24.72;32.18;100840.75;1608441;87;21121;-72
2022/06/06 08:24:26;;;;;;;2.43;1.50;;;;;;;24.85;31.98;100840.93;1606969;87;21544;-73
2022/06/06 08:26:54;;;;;;;2.53;1.93;;;;;;;24.94;31.59;100837.49;1607557;87;21085;-76
2022/06/06 08:29:22;;;;;;;3.47;1.80;;;;;;;25.05;32.42;100829.58;1607909;87;21098;-73
2022/06/06 08:31:49;;;;;;;2.20;1.63;;;;;;;25.20;31.85;100830.78;1605556;88;21073;-76
2022/06/06 08:34:16;;;;;;;1.70;1.60;;;;;;;25.23;31.42;100830.09;1607982;87;21469;-75
2022/06/06 08:37:09;;;;;;;3.10;1.47;;;;;;;25.32;31.29;100825.26;1608706;88;21299;-73
2022/06/06 08:39:47;;;;;;;3.00;1.60;;;;;;;25.44;30.96;100823.83;1611728;88;21183;-72
2022/06/06 08:42:55;;;;;;;2.30;1.60;;;;;;;25.63;30.62;100820.95;1608938;87;21038;-77
2022/06/06 08:45:50;;;;;;;2.73;1.60;;;;;;;25.80;30.08;100815.70;1607833;87;21057;-73
2022/06/06 08:49:08;;;;;;;3.13;1.60;;;;;;;25.89;29.78;100813.03;1605664;87;21081;-73
2022/06/06 08:51:52;;;;;;;3.30;1.70;;;;;;;25.90;29.61;100811.91;1580519;88;21293;-72
2022/06/06 08:54:52;;;;;;;3.73;1.90;;;;;;;25.88;30.41;100810.66;1605347;87;21532;-72
2022/06/06 08:57:42;;;;;;;3.00;1.60;;;;;;;25.95;31.01;100805.36;1606107;88;21181;-77
2022/06/06 09:00:23;;;;;;;2.07;1.40;;;;;;;26.09;29.49;100804.31;1614317;88;21062;-72
2022/06/06 09:03:17;;;;;;;2.50;1.60;;;;;;;26.20;29.02;100801.84;1606931;88;21021;-72
2022/06/06 09:06:12;;;;;;;2.30;1.70;;;;;;;26.29;29.13;100811.20;1607124;88;21313;-73
2022/06/06 09:09:25;;;;;;;2.53;1.60;;;;;;;26.22;28.28;100809.09;1604573;87;21135;-73
2022/06/06 09:12:36;;;;;;;2.47;1.80;;;;;;;26.16;28.79;100807.81;1608105;88;21105;-73
2022/06/06 09:15:47;;;;;;;2.23;1.40;;;;;;;26.37;29.12;100799.27;1607175;88;21612;-73
2022/06/06 09:18:41;;;;;;;2.30;1.55;;;;;;;26.59;29.52;100800.55;1592419;90;21034;-73
2022/06/06 09:21:25;;;;;;;2.60;1.80;;;;;;;26.81;28.95;100793.55;1623895;87;21156;-73
2022/06/06 09:24:29;;;;;;;2.77;1.60;;;;;;;26.97;28.18;100794.83;1638393;86;21069;-73
2022/06/06 09:27:27;;;;;;;3.97;1.90;;;;;;;27.08;28.35;100800.75;1607469;87;21137;-73
2022/06/06 09:30:15;;;;;;;3.43;1.70;;;;;;;27.18;27.89;100792.53;1607660;88;21179;-72
2022/06/06 09:33:06;;;;;;;3.67;2.00;;;;;;;27.15;28.14;100793.27;1614425;87;21050;-73
2022/06/06 09:35:50;;;;;;;3.23;1.87;;;;;;;27.26;28.22;100797.56;1614539;87;21349;-73
2022/06/06 09:39:13;;;;;;;2.80;1.87;;;;;;;27.42;28.59;100791.97;1590443;88;21138;-73
2022/06/06 09:41:50;;;;;;;3.03;1.87;;;;;;;27.37;27.54;100802.64;1614230;87;21113;-72
2022/06/06 09:44:57;;;;;;;1.73;1.60;;;;;;;27.18;28.40;100805.43;1614366;87;21022;-72
2022/06/06 09:47:50;;;;;;;418.67;380.57;;;;;;;27.02;28.49;100800.03;1596336;87;21129;-72
2022/06/06 09:51:08;;;;;;;4.40;2.27;;;;;;;26.84;28.74;100793.61;1602513;86;21578;-72
2022/06/06 10:01:03;;;;;;;2.47;1.60;;;;;;;26.47;29.90;100802.02;1601640;88;21021;-74
2022/06/06 10:03:54;;;;;;;2.90;1.67;;;;;;;26.68;28.76;100788.78;1626082;86;21060;-73
2022/06/06 10:06:56;;;;;;;1.75;1.40;;;;;;;27.03;27.95;100792.80;1626424;86;21270;-74
2022/06/06 10:09:43;;;;;;;3.20;1.50;;;;;;;27.26;27.57;100786.00;1618806;86;21247;-72
2022/06/06 10:12:39;;;;;;;2.93;1.50;;;;;;;27.17;26.60;100788.77;1594834;88;21116;-72
2022/06/06 10:15:34;;;;;;;2.10;1.50;;;;;;;26.85;26.87;100791.11;1610797;87;21015;-72
2022/06/06 10:18:27;;;;;;;3.13;1.60;;;;;;;26.71;27.91;100793.55;1640838;86;21043;-73
2022/06/06 10:21:37;;;;;;;2.27;1.57;;;;;;;26.49;27.82;100792.87;1610811;86;22166;-73
2022/06/06 10:24:30;;;;;;;4.40;1.90;;;;;;;26.65;28.28;100784.02;1622335;86;21458;-73
2022/06/06 10:27:37;;;;;;;3.30;1.60;;;;;;;26.93;28.78;100790.66;1622279;87;21055;-74
2022/06/06 10:30:29;;;;;;;1.73;1.37;;;;;;;27.11;26.49;100789.05;1570457;89;21406;-73
2022/06/06 10:33:27;;;;;;;1.93;1.27;;;;;;;27.17;26.24;100790.14;1620085;86;21187;-72
2022/06/06 10:36:35;;;;;;;2.80;1.73;;;;;;;27.04;26.01;100791.64;1623710;86;21286;-72
2022/06/06 10:39:16;;;;;;;2.03;1.40;;;;;;;27.02;26.51;100781.63;1624116;86;20985;-73
2022/06/06 10:42:04;;;;;;;3.40;1.70;;;;;;;27.28;26.84;100778.80;1599447;88;21125;-73
2022/06/06 10:44:51;;;;;;;2.23;1.60;;;;;;;27.48;26.77;100771.30;1627454;86;21255;-72
2022/06/06 10:47:47;;;;;;;3.87;1.60;;;;;;;27.50;26.71;100769.75;1641891;86;21121;-72
2022/06/06 10:50:24;;;;;;;1.63;1.30;;;;;;;27.59;26.37;100766.19;1640346;86;21153;-72
2022/06/06 10:53:29;;;;;;;2.00;1.43;;;;;;;27.69;26.30;100759.28;1630968;86;21643;-72
2022/06/06 10:56:22;;;;;;;2.63;1.40;;;;;;;27.74;26.36;100771.33;1611983;88;21619;-73
2022/06/06 10:59:32;;;;;;;2.33;1.67;;;;;;;27.78;26.53;100767.30;1630860;86;21115;-73
2022/06/06 11:02:40;;;;;;;2.17;1.53;;;;;;;27.56;26.68;100760.64;1628795;86;21018;-73
2022/06/06 11:05:52;;;;;;;2.20;1.70;;;;;;;27.21;27.17;100764.36;1652229;85;21221;-72
2022/06/06 11:09:10;;;;;;;4.35;2.00;;;;;;;27.02;28.12;100767.14;1626241;86;27001;-72
2022/06/06 11:11:57;;;;;;;3.77;2.00;;;;;;;27.11;28.74;100760.82;1624276;86;21069;-74
2022/06/06 11:14:38;;;;;;;2.50;1.70;;;;;;;27.14;28.77;100754.64;1622706;86;21045;-73
2022/06/06 11:17:48;;;;;;;2.53;1.73;;;;;;;27.11;28.26;100754.78;1624940;85;21103;-73
2022/06/06 11:20:58;;;;;;;2.00;1.50;;;;;;;27.05;27.64;100751.33;1602900;88;21183;-73
2022/06/06 11:23:42;;;;;;;2.07;1.43;;;;;;;26.90;27.65;100750.27;1629988;86;21561;-72
2022/06/06 11:26:30;;;;;;;4.67;1.83;;;;;;;26.68;28.24;100753.16;1628455;86;21061;-73
2022/06/06 11:29:29;;;;;;;3.33;1.60;;;;;;;26.58;28.06;100752.37;1621178;86;21111;-74
2022/06/06 11:32:37;;;;;;;3.57;1.90;;;;;;;26.62;28.02;100749.94;1628685;88;21056;-73
2022/06/06 11:35:27;;;;;;;3.83;1.50;;;;;;;26.86;28.49;100743.34;1628006;88;21291;-71
2022/06/06 11:38:14;;;;;;;2.55;1.60;;;;;;;27.16;28.21;100749.59;1634318;85;21107;-73
2022/06/06 11:41:06;;;;;;;2.57;1.80;;;;;;;27.40;27.41;100732.55;1601692;89;21038;-72
2022/06/06 11:43:54;;;;;;;2.50;1.70;;;;;;;27.49;27.79;100725.66;1613507;87;21152;-72
2022/06/06 11:46:57;;;;;;;3.30;1.80;;;;;;;27.45;28.13;100727.55;1627552;87;21551;-73
2022/06/06 11:50:07;;;;;;;3.70;1.80;;;;;;;27.38;28.11;100730.75;1630481;86;21144;-73
2022/06/06 11:53:19;;;;;;;3.77;1.90;;;;;;;27.34;27.11;100733.43;1630239;86;21017;-72
2022/06/06 11:56:13;;;;;;;3.22;1.77;;;;;;;27.42;27.69;100737.10;1616321;87;21077;-73
2022/06/06 11:59:25;;;;;;;2.57;1.83;;;;;;;27.58;28.29;100735.02;1586386;89;21171;-72
2022/06/06 12:02:12;;;;;;;;;;;;;;;27.83;27.13;100727.95;1606946;88;21173;-72
2022/06/06 12:05:18;;;;;;;4.30;1.70;;;;;;;28.06;26.18;100724.35;1616272;87;21421;-73
2022/06/06 12:08:11;;;;;;;2.50;1.80;;;;;;;28.11;26.51;100724.03;1622134;87;21123;-77
2022/06/06 12:11:01;;;;;;;3.60;1.87;;;;;;;28.16;26.62;100729.19;1621798;87;21533;-73
2022/06/06 12:13:42;;;;;;;3.63;1.87;;;;;;;27.96;27.08;100731.28;1619770;87;21188;-73
2022/06/06 12:16:31;;;;;;;2.30;1.60;;;;;;;27.78;27.28;100731.62;1619498;87;21113;-72
2022/06/06 12:19:19;;;;;;;4.43;1.67;;;;;;;27.72;26.71;100733.84;1621180;87;21118;-73
2022/06/06 12:22:15;;;;;;;3.93;1.60;;;;;;;27.77;27.16;100743.73;1612727;87;21426;-73
2022/06/06 12:25:06;;;;;;;2.70;1.63;;;;;;;27.84;27.59;100730.14;1621402;86;21152;-73
2022/06/06 12:27:58;;;;;;;3.60;1.90;;;;;;;27.98;28.15;100730.92;1626988;86;21121;-71
2022/06/06 12:31:06;;;;;;;5.37;1.60;;;;;;;28.11;27.37;100719.13;1627928;86;21106;-73
2022/06/06 12:33:37;;;;;;;3.50;1.60;;;;;;;28.23;26.36;100714.20;1626802;86;21168;-73
2022/06/06 12:36:26;;;;;;;2.00;1.40;;;;;;;28.42;26.58;100717.38;1600680;88;20983;-73
2022/06/06 12:39:13;;;;;;;2.30;1.43;;;;;;;28.52;25.83;100717.30;1639321;86;21124;-73
2022/06/06 12:42:07;;;;;;;2.27;1.57;;;;;;;28.58;24.73;100721.30;1636593;85;21164;-72
2022/06/06 12:45:32;;;;;;;3.83;1.60;;;;;;;28.51;24.77;100719.84;1624271;86;21064;-73
2022/06/06 12:48:42;;;;;;;2.10;1.30;;;;;;;28.45;24.72;100713.09;1625605;86;21125;-72
2022/06/06 12:51:40;;;;;;;1.97;1.23;;;;;;;28.40;24.75;100710.11;1513163;86;9999990;-73
2022/06/06 12:57:36;;;;;;;3.47;1.50;;;;;;;28.09;24.74;100704.97;1609885;86;21552;-73
2022/06/06 13:00:08;;;;;;;2.47;1.47;;;;;;;27.93;25.10;100699.66;1642030;85;21155;-73
2022/06/06 13:03:08;;;;;;;3.08;1.55;;;;;;;27.80;26.21;100703.98;1633678;85;21408;-74
2022/06/06 13:05:44;;;;;;;2.27;1.52;;;;;;;27.67;26.52;100703.17;1620002;86;21405;-73
2022/06/06 13:08:42;;;;;;;3.30;1.40;;;;;;;27.52;26.44;100711.79;1599233;86;21117;-71
2022/06/06 13:11:45;;;;;;;2.13;1.40;;;;;;;27.48;25.96;100700.77;1620397;86;21176;-73
2022/06/06 13:14:26;;;;;;;2.93;1.60;;;;;;;27.55;26.21;100698.70;1624686;86;21714;-73